createdAt,value
2022-11-28T07:04:13.023Z,91.57
2022-11-28T07:05:12.736Z,91.57
2022-11-28T07:06:12.797Z,91.29
2022-11-28T07:07:18.306Z,91.67
2022-11-28T07:08:12.658Z,91.57
2022-11-28T07:09:12.748Z,91.48
2022-11-28T07:10:12.758Z,91.86
2022-11-28T07:11:12.756Z,92.05
2022-11-28T07:12:12.742Z,91.38
2022-11-28T07:13:12.942Z,91.86
2022-11-28T07:14:12.605Z,92.14
2022-11-28T07:15:12.909Z,92.05
2022-11-28T07:16:12.634Z,91.67
2022-11-28T07:17:12.892Z,91.76
2022-11-28T07:18:12.785Z,91.86
2022-11-28T07:19:12.999Z,92.43
2022-11-28T07:20:14.227Z,93.08
2022-11-28T07:21:12.655Z,93.04
2022-11-28T07:22:12.539Z,93.04
2022-11-28T07:23:12.981Z,93.32
2022-11-28T07:24:13.186Z,92.71
2022-11-28T07:25:12.575Z,92.61
2022-11-28T07:26:12.814Z,92.09
2022-11-28T07:27:12.571Z,92.09
2022-11-28T07:28:12.881Z,91.81
2022-11-28T07:29:12.935Z,91.14
2022-11-28T07:30:12.617Z,91.24
2022-11-28T07:31:12.852Z,91.43
2022-11-28T07:32:12.729Z,90.39
2022-11-28T07:33:12.833Z,90.58
2022-11-28T07:34:12.639Z,90.2
2022-11-28T07:35:13.283Z,90.48
2022-11-28T07:36:13.455Z,90.67
2022-11-28T07:37:12.672Z,90.67
2022-11-28T07:38:12.653Z,90.67
2022-11-28T07:39:44.928Z,90.29
2022-11-28T07:40:12.880Z,90.1
2022-11-28T07:41:12.948Z,90.1
2022-11-28T07:42:12.652Z,89.34
2022-11-28T07:43:12.921Z,89.82
2022-11-28T07:44:12.676Z,89.63
2022-11-28T07:45:12.931Z,89.53
2022-11-28T07:46:12.786Z,88.87
2022-11-28T07:47:12.872Z,89.63
2022-11-28T07:48:12.653Z,89.82
2022-11-28T07:49:12.925Z,90.2
2022-11-28T07:50:12.901Z,89.53
2022-11-28T07:51:13.562Z,88.78
2022-11-28T07:52:12.973Z,89.44
2022-11-28T07:53:12.669Z,88.59
2022-11-28T07:54:12.682Z,88.02
2022-11-28T07:55:12.679Z,88.4
2022-11-28T07:56:12.934Z,87.54
2022-11-28T07:57:15.277Z,88.3
2022-11-28T07:58:12.687Z,87.83
2022-11-28T07:59:12.970Z,88.21
2022-11-28T08:00:12.948Z,88.02
2022-11-28T08:01:12.695Z,86.98
2022-11-28T08:02:13.262Z,86.5
2022-11-28T08:03:12.758Z,86.31
2022-11-28T08:04:12.806Z,86.31
2022-11-28T08:05:12.810Z,86.12
2022-11-28T08:06:12.970Z,86.5
2022-11-28T08:07:12.867Z,85.93
2022-11-28T08:08:13.732Z,86.41
2022-11-28T08:09:12.735Z,86.31
2022-11-28T08:10:13.393Z,86.45
2022-11-28T08:11:12.779Z,86.41
2022-11-28T08:12:12.772Z,86.55
2022-11-28T08:13:12.801Z,86.07
2022-11-28T08:14:12.770Z,85.97
2022-11-28T08:15:12.849Z,85.13
2022-11-28T08:16:12.931Z,85.31
2022-11-28T08:17:13.133Z,85.31
2022-11-28T08:18:13.241Z,85.31
2022-11-28T08:19:13.619Z,84.27
2022-11-28T08:20:13.432Z,84.36
2022-11-28T08:21:12.817Z,84.74
2022-11-28T08:22:12.811Z,84.74
2022-11-28T08:23:12.825Z,84.08
2022-11-28T08:24:13.147Z,84.74
2022-11-28T08:25:12.836Z,84.46
2022-11-28T08:26:12.856Z,84.94
2022-11-28T08:27:12.819Z,84.46
2022-11-28T08:28:12.875Z,84.36
